sensor_id;sensor_type;location;lat;lon;timestamp;P1;durP1;ratioP1;P2;durP2;ratioP2
84172;SDS011;74302;40.122;18.310;2024-01-27T00:00:34;24.35;;;10.43;;
84172;SDS011;74302;40.122;18.310;2024-01-27T00:02:18;14.15;;;9.40;;
84172;SDS011;74302;40.122;18.310;2024-01-27T00:04:01;18.55;;;10.27;;
84172;SDS011;74302;40.122;18.310;2024-01-27T00:07:28;13.02;;;9.70;;
84172;SDS011;74302;40.122;18.310;2024-01-27T00:09:12;17.50;;;9.07;;
84172;SDS011;74302;40.122;18.310;2024-01-27T00:10:56;19.45;;;10.93;;
84172;SDS011;74302;40.122;18.310;2024-01-27T00:16:37;12.73;;;6.95;;
84172;SDS011;74302;40.122;18.310;2024-01-27T00:19:31;13.52;;;7.80;;
84172;SDS011;74302;40.122;18.310;2024-01-27T00:21:36;12.32;;;9.43;;
84172;SDS011;74302;40.122;18.310;2024-01-27T00:23:19;14.90;;;8.35;;
84172;SDS011;74302;40.122;18.310;2024-01-27T00:25:03;13.10;;;8.10;;
84172;SDS011;74302;40.122;18.310;2024-01-27T00:26:48;15.23;;;9.20;;
84172;SDS011;74302;40.122;18.310;2024-01-27T00:28:33;10.77;;;7.60;;
84172;SDS011;74302;40.122;18.310;2024-01-27T00:30:17;10.63;;;7.18;;
84172;SDS011;74302;40.122;18.310;2024-01-27T00:32:01;14.40;;;9.23;;
84172;SDS011;74302;40.122;18.310;2024-01-27T00:33:45;8.27;;;6.75;;
84172;SDS011;74302;40.122;18.310;2024-01-27T00:35:29;14.45;;;8.55;;
84172;SDS011;74302;40.122;18.310;2024-01-27T00:37:12;20.98;;;9.02;;
84172;SDS011;74302;40.122;18.310;2024-01-27T00:38:56;9.75;;;6.18;;
84172;SDS011;74302;40.122;18.310;2024-01-27T00:40:40;13.07;;;7.15;;
84172;SDS011;74302;40.122;18.310;2024-01-27T00:42:40;11.50;;;7.68;;
84172;SDS011;74302;40.122;18.310;2024-01-27T00:48:51;9.27;;;5.13;;
84172;SDS011;74302;40.122;18.310;2024-01-27T00:50:35;11.68;;;8.68;;
84172;SDS011;74302;40.122;18.310;2024-01-27T00:52:19;16.70;;;9.70;;
84172;SDS011;74302;40.122;18.310;2024-01-27T00:54:03;14.13;;;9.23;;
84172;SDS011;74302;40.122;18.310;2024-01-27T00:55:47;9.52;;;7.20;;
84172;SDS011;74302;40.122;18.310;2024-01-27T00:57:30;10.45;;;6.30;;
84172;SDS011;74302;40.122;18.310;2024-01-27T00:59:14;10.07;;;7.40;;
84172;SDS011;74302;40.122;18.310;2024-01-27T01:02:41;14.90;;;7.03;;
84172;SDS011;74302;40.122;18.310;2024-01-27T01:04:27;28.50;;;10.38;;
84172;SDS011;74302;40.122;18.310;2024-01-27T01:06:11;9.52;;;7.55;;
84172;SDS011;74302;40.122;18.310;2024-01-27T01:07:54;11.75;;;6.90;;
84172;SDS011;74302;40.122;18.310;2024-01-27T01:09:38;16.67;;;8.77;;
84172;SDS011;74302;40.122;18.310;2024-01-27T01:11:48;8.25;;;5.38;;
84172;SDS011;74302;40.122;18.310;2024-01-27T01:20:34;11.15;;;6.22;;
84172;SDS011;74302;40.122;18.310;2024-01-27T01:22:18;9.80;;;6.10;;
84172;SDS011;74302;40.122;18.310;2024-01-27T01:24:02;17.92;;;10.07;;
84172;SDS011;74302;40.122;18.310;2024-01-27T01:27:29;12.20;;;6.03;;
84172;SDS011;74302;40.122;18.310;2024-01-27T01:29:13;14.00;;;7.50;;
84172;SDS011;74302;40.122;18.310;2024-01-27T01:32:40;10.45;;;6.00;;
84172;SDS011;74302;40.122;18.310;2024-01-27T01:34:26;14.73;;;8.90;;
84172;SDS011;74302;40.122;18.310;2024-01-27T01:36:09;8.38;;;6.57;;
84172;SDS011;74302;40.122;18.310;2024-01-27T01:37:53;8.25;;;5.65;;
84172;SDS011;74302;40.122;18.310;2024-01-27T01:39:36;13.63;;;6.82;;
84172;SDS011;74302;40.122;18.310;2024-01-27T01:41:21;13.35;;;7.30;;
84172;SDS011;74302;40.122;18.310;2024-01-27T01:43:06;14.23;;;8.27;;
84172;SDS011;74302;40.122;18.310;2024-01-27T01:44:53;11.82;;;6.22;;
84172;SDS011;74302;40.122;18.310;2024-01-27T01:46:37;17.50;;;7.60;;
84172;SDS011;74302;40.122;18.310;2024-01-27T01:48:21;9.90;;;5.88;;
84172;SDS011;74302;40.122;18.310;2024-01-27T01:51:50;14.85;;;6.97;;
84172;SDS011;74302;40.122;18.310;2024-01-27T01:53:46;13.82;;;6.93;;
84172;SDS011;74302;40.122;18.310;2024-01-27T01:56:33;13.90;;;6.88;;
84172;SDS011;74302;40.122;18.310;2024-01-27T01:59:00;12.55;;;7.03;;
84172;SDS011;74302;40.122;18.310;2024-01-27T02:01:12;11.40;;;7.25;;
84172;SDS011;74302;40.122;18.310;2024-01-27T02:02:57;8.52;;;5.18;;
84172;SDS011;74302;40.122;18.310;2024-01-27T02:04:40;10.77;;;4.82;;
84172;SDS011;74302;40.122;18.310;2024-01-27T02:06:26;10.82;;;5.80;;
84172;SDS011;74302;40.122;18.310;2024-01-27T02:08:10;9.10;;;5.40;;
84172;SDS011;74302;40.122;18.310;2024-01-27T02:09:54;10.32;;;6.18;;
84172;SDS011;74302;40.122;18.310;2024-01-27T02:11:39;10.27;;;6.00;;
84172;SDS011;74302;40.122;18.310;2024-01-27T02:16:53;8.05;;;4.18;;
84172;SDS011;74302;40.122;18.310;2024-01-27T02:20:20;8.35;;;5.07;;
84172;SDS011;74302;40.122;18.310;2024-01-27T02:22:05;6.75;;;4.68;;
84172;SDS011;74302;40.122;18.310;2024-01-27T02:23:49;12.00;;;6.68;;
84172;SDS011;74302;40.122;18.310;2024-01-27T02:25:38;11.23;;;5.00;;
84172;SDS011;74302;40.122;18.310;2024-01-27T02:27:23;10.48;;;7.18;;
84172;SDS011;74302;40.122;18.310;2024-01-27T02:29:12;9.88;;;6.07;;
84172;SDS011;74302;40.122;18.310;2024-01-27T02:31:04;6.45;;;4.75;;
84172;SDS011;74302;40.122;18.310;2024-01-27T02:33:29;12.40;;;5.80;;
84172;SDS011;74302;40.122;18.310;2024-01-27T02:35:13;10.57;;;5.70;;
84172;SDS011;74302;40.122;18.310;2024-01-27T02:36:58;8.57;;;4.97;;
84172;SDS011;74302;40.122;18.310;2024-01-27T02:38:41;12.50;;;6.30;;
84172;SDS011;74302;40.122;18.310;2024-01-27T02:40:25;10.98;;;7.10;;
84172;SDS011;74302;40.122;18.310;2024-01-27T02:42:10;12.45;;;6.63;;
84172;SDS011;74302;40.122;18.310;2024-01-27T02:43:54;8.82;;;4.47;;
84172;SDS011;74302;40.122;18.310;2024-01-27T02:45:47;8.85;;;4.47;;
84172;SDS011;74302;40.122;18.310;2024-01-27T02:48:25;8.18;;;5.78;;
84172;SDS011;74302;40.122;18.310;2024-01-27T02:51:25;8.60;;;5.70;;
84172;SDS011;74302;40.122;18.310;2024-01-27T02:53:56;11.00;;;4.00;;
84172;SDS011;74302;40.122;18.310;2024-01-27T02:55:41;18.63;;;7.55;;
84172;SDS011;74302;40.122;18.310;2024-01-27T02:57:26;10.80;;;5.97;;
84172;SDS011;74302;40.122;18.310;2024-01-27T02:59:11;9.05;;;4.25;;
84172;SDS011;74302;40.122;18.310;2024-01-27T03:00:55;8.85;;;5.57;;
84172;SDS011;74302;40.122;18.310;2024-01-27T03:02:39;13.75;;;5.63;;
84172;SDS011;74302;40.122;18.310;2024-01-27T03:04:23;9.85;;;5.95;;
84172;SDS011;74302;40.122;18.310;2024-01-27T03:06:07;12.25;;;5.82;;
84172;SDS011;74302;40.122;18.310;2024-01-27T03:07:51;11.43;;;6.03;;
84172;SDS011;74302;40.122;18.310;2024-01-27T03:09:34;10.85;;;4.97;;
84172;SDS011;74302;40.122;18.310;2024-01-27T03:13:03;10.82;;;4.03;;
84172;SDS011;74302;40.122;18.310;2024-01-27T03:14:47;8.45;;;4.05;;
84172;SDS011;74302;40.122;18.310;2024-01-27T03:16:32;9.85;;;5.35;;
84172;SDS011;74302;40.122;18.310;2024-01-27T03:18:18;8.07;;;5.07;;
84172;SDS011;74302;40.122;18.310;2024-01-27T03:20:02;9.95;;;4.90;;
84172;SDS011;74302;40.122;18.310;2024-01-27T03:21:47;13.40;;;5.40;;
84172;SDS011;74302;40.122;18.310;2024-01-27T03:23:30;9.43;;;5.60;;
84172;SDS011;74302;40.122;18.310;2024-01-27T03:26:58;5.38;;;3.25;;
84172;SDS011;74302;40.122;18.310;2024-01-27T03:28:43;8.38;;;4.25;;
84172;SDS011;74302;40.122;18.310;2024-01-27T03:30:27;8.90;;;5.05;;
84172;SDS011;74302;40.122;18.310;2024-01-27T03:32:10;6.90;;;4.32;;
84172;SDS011;74302;40.122;18.310;2024-01-27T03:33:54;6.57;;;5.07;;
84172;SDS011;74302;40.122;18.310;2024-01-27T03:35:39;8.52;;;4.25;;
84172;SDS011;74302;40.122;18.310;2024-01-27T03:39:06;7.85;;;4.70;;
84172;SDS011;74302;40.122;18.310;2024-01-27T03:40:51;9.60;;;6.30;;
84172;SDS011;74302;40.122;18.310;2024-01-27T03:42:36;9.77;;;5.63;;
84172;SDS011;74302;40.122;18.310;2024-01-27T03:44:20;6.72;;;4.75;;
84172;SDS011;74302;40.122;18.310;2024-01-27T03:46:04;9.68;;;4.85;;
84172;SDS011;74302;40.122;18.310;2024-01-27T03:47:48;6.85;;;3.88;;
84172;SDS011;74302;40.122;18.310;2024-01-27T03:49:32;9.23;;;4.65;;
84172;SDS011;74302;40.122;18.310;2024-01-27T03:53:00;9.50;;;4.53;;
84172;SDS011;74302;40.122;18.310;2024-01-27T03:54:45;6.47;;;3.85;;
84172;SDS011;74302;40.122;18.310;2024-01-27T03:56:29;6.80;;;5.05;;
84172;SDS011;74302;40.122;18.310;2024-01-27T03:58:12;9.15;;;4.20;;
84172;SDS011;74302;40.122;18.310;2024-01-27T03:59:58;7.25;;;4.43;;
84172;SDS011;74302;40.122;18.310;2024-01-27T04:01:42;9.15;;;5.53;;
84172;SDS011;74302;40.122;18.310;2024-01-27T04:03:25;13.73;;;5.63;;
84172;SDS011;74302;40.122;18.310;2024-01-27T04:05:09;9.05;;;4.95;;
84172;SDS011;74302;40.122;18.310;2024-01-27T04:06:53;12.60;;;5.10;;
84172;SDS011;74302;40.122;18.310;2024-01-27T04:10:20;11.43;;;4.72;;
84172;SDS011;74302;40.122;18.310;2024-01-27T04:12:05;10.07;;;5.03;;
84172;SDS011;74302;40.122;18.310;2024-01-27T04:13:49;10.82;;;4.63;;
84172;SDS011;74302;40.122;18.310;2024-01-27T04:15:34;10.18;;;4.50;;
84172;SDS011;74302;40.122;18.310;2024-01-27T04:17:20;8.65;;;5.25;;
84172;SDS011;74302;40.122;18.310;2024-01-27T04:19:04;10.23;;;4.63;;
84172;SDS011;74302;40.122;18.310;2024-01-27T04:22:32;12.10;;;5.13;;
84172;SDS011;74302;40.122;18.310;2024-01-27T04:24:16;6.28;;;3.78;;
84172;SDS011;74302;40.122;18.310;2024-01-27T04:25:59;11.80;;;5.07;;
84172;SDS011;74302;40.122;18.310;2024-01-27T04:27:44;6.88;;;3.80;;
84172;SDS011;74302;40.122;18.310;2024-01-27T04:29:29;8.55;;;5.05;;
84172;SDS011;74302;40.122;18.310;2024-01-27T04:31:15;11.55;;;5.85;;
84172;SDS011;74302;40.122;18.310;2024-01-27T04:33:00;8.30;;;3.83;;
84172;SDS011;74302;40.122;18.310;2024-01-27T04:34:45;9.45;;;5.13;;
84172;SDS011;74302;40.122;18.310;2024-01-27T04:36:30;5.55;;;3.53;;
84172;SDS011;74302;40.122;18.310;2024-01-27T04:38:14;6.85;;;4.13;;
84172;SDS011;74302;40.122;18.310;2024-01-27T04:39:57;11.10;;;5.57;;
84172;SDS011;74302;40.122;18.310;2024-01-27T04:41:41;7.55;;;4.72;;
84172;SDS011;74302;40.122;18.310;2024-01-27T04:43:26;9.70;;;5.15;;
84172;SDS011;74302;40.122;18.310;2024-01-27T04:45:09;10.05;;;5.40;;
84172;SDS011;74302;40.122;18.310;2024-01-27T04:48:38;9.95;;;5.03;;
84172;SDS011;74302;40.122;18.310;2024-01-27T04:52:07;11.65;;;5.13;;
84172;SDS011;74302;40.122;18.310;2024-01-27T04:53:50;10.63;;;5.82;;
84172;SDS011;74302;40.122;18.310;2024-01-27T04:55:34;5.70;;;3.75;;
84172;SDS011;74302;40.122;18.310;2024-01-27T04:57:19;10.27;;;4.90;;
84172;SDS011;74302;40.122;18.310;2024-01-27T04:59:11;6.65;;;4.28;;
84172;SDS011;74302;40.122;18.310;2024-01-27T05:00:59;7.75;;;4.47;;
84172;SDS011;74302;40.122;18.310;2024-01-27T05:02:47;6.55;;;4.07;;
84172;SDS011;74302;40.122;18.310;2024-01-27T05:04:33;7.45;;;5.15;;
84172;SDS011;74302;40.122;18.310;2024-01-27T05:06:16;8.02;;;4.80;;
84172;SDS011;74302;40.122;18.310;2024-01-27T05:08:02;5.93;;;4.47;;
84172;SDS011;74302;40.122;18.310;2024-01-27T05:09:45;7.78;;;5.07;;
84172;SDS011;74302;40.122;18.310;2024-01-27T05:11:30;7.93;;;3.65;;
84172;SDS011;74302;40.122;18.310;2024-01-27T05:13:15;10.80;;;5.30;;
84172;SDS011;74302;40.122;18.310;2024-01-27T05:14:59;8.10;;;5.68;;
84172;SDS011;74302;40.122;18.310;2024-01-27T05:16:42;5.93;;;4.18;;
84172;SDS011;74302;40.122;18.310;2024-01-27T05:18:28;8.15;;;4.20;;
84172;SDS011;74302;40.122;18.310;2024-01-27T05:20:11;5.95;;;3.33;;
84172;SDS011;74302;40.122;18.310;2024-01-27T05:21:55;7.90;;;4.60;;
84172;SDS011;74302;40.122;18.310;2024-01-27T05:23:38;8.13;;;5.22;;
84172;SDS011;74302;40.122;18.310;2024-01-27T05:25:23;15.48;;;6.30;;
84172;SDS011;74302;40.122;18.310;2024-01-27T05:27:07;8.63;;;6.90;;
84172;SDS011;74302;40.122;18.310;2024-01-27T05:28:51;8.52;;;4.03;;
84172;SDS011;74302;40.122;18.310;2024-01-27T05:30:36;8.90;;;5.90;;
84172;SDS011;74302;40.122;18.310;2024-01-27T05:32:20;11.43;;;5.03;;
84172;SDS011;74302;40.122;18.310;2024-01-27T05:34:04;7.25;;;4.95;;
84172;SDS011;74302;40.122;18.310;2024-01-27T05:35:49;9.68;;;4.35;;
84172;SDS011;74302;40.122;18.310;2024-01-27T05:37:33;11.60;;;6.60;;
84172;SDS011;74302;40.122;18.310;2024-01-27T05:39:17;11.10;;;6.45;;
84172;SDS011;74302;40.122;18.310;2024-01-27T05:41:02;10.50;;;5.00;;
84172;SDS011;74302;40.122;18.310;2024-01-27T05:42:45;11.30;;;4.47;;
84172;SDS011;74302;40.122;18.310;2024-01-27T05:44:31;6.47;;;4.47;;
84172;SDS011;74302;40.122;18.310;2024-01-27T05:46:15;8.23;;;4.20;;
84172;SDS011;74302;40.122;18.310;2024-01-27T05:47:59;11.50;;;6.43;;
84172;SDS011;74302;40.122;18.310;2024-01-27T05:49:44;17.88;;;6.05;;
84172;SDS011;74302;40.122;18.310;2024-01-27T05:51:29;7.70;;;3.65;;
84172;SDS011;74302;40.122;18.310;2024-01-27T05:53:12;16.27;;;5.65;;
84172;SDS011;74302;40.122;18.310;2024-01-27T05:54:56;10.23;;;4.25;;
84172;SDS011;74302;40.122;18.310;2024-01-27T05:56:39;8.48;;;3.78;;
84172;SDS011;74302;40.122;18.310;2024-01-27T05:58:23;11.40;;;5.95;;
84172;SDS011;74302;40.122;18.310;2024-01-27T06:00:17;14.02;;;5.35;;
84172;SDS011;74302;40.122;18.310;2024-01-27T06:03:53;7.90;;;3.50;;
84172;SDS011;74302;40.122;18.310;2024-01-27T06:06:36;10.00;;;3.50;;
84172;SDS011;74302;40.122;18.310;2024-01-27T06:08:22;4.88;;;2.13;;
84172;SDS011;74302;40.122;18.310;2024-01-27T06:10:07;10.40;;;5.03;;
84172;SDS011;74302;40.122;18.310;2024-01-27T06:11:50;6.93;;;3.95;;
84172;SDS011;74302;40.122;18.310;2024-01-27T06:13:34;9.10;;;4.70;;
84172;SDS011;74302;40.122;18.310;2024-01-27T06:15:20;18.00;;;4.28;;
84172;SDS011;74302;40.122;18.310;2024-01-27T06:17:04;4.60;;;3.50;;
84172;SDS011;74302;40.122;18.310;2024-01-27T06:18:48;7.82;;;4.65;;
84172;SDS011;74302;40.122;18.310;2024-01-27T06:22:17;6.10;;;3.67;;
84172;SDS011;74302;40.122;18.310;2024-01-27T06:24:01;10.45;;;4.63;;
84172;SDS011;74302;40.122;18.310;2024-01-27T06:25:45;10.80;;;4.60;;
84172;SDS011;74302;40.122;18.310;2024-01-27T06:27:29;10.88;;;5.20;;
84172;SDS011;74302;40.122;18.310;2024-01-27T06:29:12;6.97;;;3.90;;
84172;SDS011;74302;40.122;18.310;2024-01-27T06:30:56;10.32;;;5.13;;
84172;SDS011;74302;40.122;18.310;2024-01-27T06:32:40;7.77;;;4.20;;
84172;SDS011;74302;40.122;18.310;2024-01-27T06:34:24;9.27;;;4.13;;
84172;SDS011;74302;40.122;18.310;2024-01-27T06:37:53;5.18;;;2.70;;
84172;SDS011;74302;40.122;18.310;2024-01-27T06:39:37;9.88;;;3.22;;
84172;SDS011;74302;40.122;18.310;2024-01-27T06:41:21;9.50;;;3.40;;
84172;SDS011;74302;40.122;18.310;2024-01-27T06:44:48;7.50;;;2.92;;
84172;SDS011;74302;40.122;18.310;2024-01-27T06:46:32;8.65;;;4.63;;
84172;SDS011;74302;40.122;18.310;2024-01-27T06:48:15;9.70;;;4.35;;
84172;SDS011;74302;40.122;18.310;2024-01-27T06:49:59;10.38;;;4.18;;
84172;SDS011;74302;40.122;18.310;2024-01-27T06:51:44;7.50;;;5.25;;
84172;SDS011;74302;40.122;18.310;2024-01-27T06:53:29;7.50;;;4.07;;
84172;SDS011;74302;40.122;18.310;2024-01-27T06:55:13;13.00;;;5.38;;
84172;SDS011;74302;40.122;18.310;2024-01-27T06:56:58;5.45;;;2.90;;
84172;SDS011;74302;40.122;18.310;2024-01-27T06:58:43;7.13;;;3.85;;
84172;SDS011;74302;40.122;18.310;2024-01-27T07:00:26;6.03;;;3.83;;
84172;SDS011;74302;40.122;18.310;2024-01-27T07:02:10;9.88;;;4.72;;
84172;SDS011;74302;40.122;18.310;2024-01-27T07:03:56;10.25;;;5.55;;
84172;SDS011;74302;40.122;18.310;2024-01-27T07:05:40;28.42;;;4.05;;
84172;SDS011;74302;40.122;18.310;2024-01-27T07:07:24;9.10;;;4.33;;
84172;SDS011;74302;40.122;18.310;2024-01-27T07:09:11;11.43;;;5.15;;
84172;SDS011;74302;40.122;18.310;2024-01-27T07:10:54;7.65;;;3.92;;
84172;SDS011;74302;40.122;18.310;2024-01-27T07:12:38;9.82;;;3.85;;
84172;SDS011;74302;40.122;18.310;2024-01-27T07:14:23;10.25;;;5.50;;
84172;SDS011;74302;40.122;18.310;2024-01-27T07:16:06;10.68;;;6.13;;
84172;SDS011;74302;40.122;18.310;2024-01-27T07:19:33;12.23;;;6.57;;
84172;SDS011;74302;40.122;18.310;2024-01-27T07:21:17;6.82;;;3.85;;
84172;SDS011;74302;40.122;18.310;2024-01-27T07:23:00;10.35;;;5.30;;
84172;SDS011;74302;40.122;18.310;2024-01-27T07:24:46;12.85;;;5.75;;
84172;SDS011;74302;40.122;18.310;2024-01-27T07:26:32;6.47;;;4.40;;
84172;SDS011;74302;40.122;18.310;2024-01-27T07:28:16;7.68;;;4.55;;
84172;SDS011;74302;40.122;18.310;2024-01-27T07:31:45;6.72;;;3.65;;
84172;SDS011;74302;40.122;18.310;2024-01-27T07:33:29;10.32;;;5.53;;
84172;SDS011;74302;40.122;18.310;2024-01-27T07:35:12;9.18;;;4.80;;
84172;SDS011;74302;40.122;18.310;2024-01-27T07:36:57;10.88;;;5.43;;
84172;SDS011;74302;40.122;18.310;2024-01-27T07:38:40;14.27;;;6.40;;
84172;SDS011;74302;40.122;18.310;2024-01-27T07:40:26;8.23;;;4.70;;
84172;SDS011;74302;40.122;18.310;2024-01-27T07:42:10;10.60;;;4.82;;
84172;SDS011;74302;40.122;18.310;2024-01-27T07:43:54;12.45;;;6.18;;
84172;SDS011;74302;40.122;18.310;2024-01-27T07:45:38;19.90;;;6.65;;
84172;SDS011;74302;40.122;18.310;2024-01-27T07:49:05;11.38;;;4.70;;
84172;SDS011;74302;40.122;18.310;2024-01-27T07:50:50;19.65;;;5.15;;
84172;SDS011;74302;40.122;18.310;2024-01-27T07:52:33;9.38;;;5.13;;
84172;SDS011;74302;40.122;18.310;2024-01-27T07:54:18;9.05;;;4.88;;
84172;SDS011;74302;40.122;18.310;2024-01-27T07:56:03;9.85;;;5.40;;
84172;SDS011;74302;40.122;18.310;2024-01-27T07:57:49;10.73;;;5.20;;
84172;SDS011;74302;40.122;18.310;2024-01-27T07:59:33;8.93;;;4.63;;
84172;SDS011;74302;40.122;18.310;2024-01-27T08:01:18;4.63;;;3.08;;
84172;SDS011;74302;40.122;18.310;2024-01-27T08:04:46;10.88;;;4.40;;
84172;SDS011;74302;40.122;18.310;2024-01-27T08:08:13;7.50;;;4.90;;
84172;SDS011;74302;40.122;18.310;2024-01-27T08:09:58;9.82;;;3.28;;
84172;SDS011;74302;40.122;18.310;2024-01-27T08:11:43;8.30;;;3.92;;
84172;SDS011;74302;40.122;18.310;2024-01-27T08:13:33;12.15;;;5.63;;
84172;SDS011;74302;40.122;18.310;2024-01-27T08:15:18;9.32;;;4.88;;
84172;SDS011;74302;40.122;18.310;2024-01-27T08:17:02;12.30;;;5.05;;
84172;SDS011;74302;40.122;18.310;2024-01-27T08:18:45;8.77;;;4.57;;
84172;SDS011;74302;40.122;18.310;2024-01-27T08:20:30;12.02;;;5.15;;
84172;SDS011;74302;40.122;18.310;2024-01-27T08:22:14;8.48;;;4.72;;
84172;SDS011;74302;40.122;18.310;2024-01-27T08:23:58;9.75;;;5.05;;
84172;SDS011;74302;40.122;18.310;2024-01-27T08:25:42;11.10;;;5.63;;
84172;SDS011;74302;40.122;18.310;2024-01-27T08:27:30;6.80;;;4.15;;
84172;SDS011;74302;40.122;18.310;2024-01-27T08:29:15;11.27;;;5.55;;
84172;SDS011;74302;40.122;18.310;2024-01-27T08:30:58;13.00;;;5.05;;
84172;SDS011;74302;40.122;18.310;2024-01-27T08:32:44;8.27;;;4.78;;
84172;SDS011;74302;40.122;18.310;2024-01-27T08:34:27;11.00;;;3.72;;
84172;SDS011;74302;40.122;18.310;2024-01-27T08:36:12;7.20;;;4.65;;
84172;SDS011;74302;40.122;18.310;2024-01-27T08:37:56;6.35;;;4.07;;
84172;SDS011;74302;40.122;18.310;2024-01-27T08:39:40;6.35;;;3.50;;
84172;SDS011;74302;40.122;18.310;2024-01-27T08:41:23;8.25;;;4.75;;
84172;SDS011;74302;40.122;18.310;2024-01-27T08:43:10;9.68;;;4.82;;
84172;SDS011;74302;40.122;18.310;2024-01-27T08:44:53;9.10;;;4.57;;
84172;SDS011;74302;40.122;18.310;2024-01-27T08:46:37;6.93;;;3.83;;
84172;SDS011;74302;40.122;18.310;2024-01-27T08:48:21;16.63;;;5.63;;
84172;SDS011;74302;40.122;18.310;2024-01-27T08:50:05;7.57;;;4.53;;
84172;SDS011;74302;40.122;18.310;2024-01-27T08:51:50;9.93;;;3.60;;
84172;SDS011;74302;40.122;18.310;2024-01-27T08:53:34;7.18;;;4.20;;
84172;SDS011;74302;40.122;18.310;2024-01-27T08:55:18;9.93;;;4.05;;
84172;SDS011;74302;40.122;18.310;2024-01-27T08:58:47;7.95;;;4.03;;
84172;SDS011;74302;40.122;18.310;2024-01-27T09:00:32;6.30;;;3.33;;
84172;SDS011;74302;40.122;18.310;2024-01-27T09:02:15;13.95;;;5.25;;
84172;SDS011;74302;40.122;18.310;2024-01-27T09:05:42;6.97;;;4.13;;
84172;SDS011;74302;40.122;18.310;2024-01-27T09:07:28;7.22;;;3.30;;
84172;SDS011;74302;40.122;18.310;2024-01-27T09:09:11;8.85;;;4.35;;
84172;SDS011;74302;40.122;18.310;2024-01-27T09:10:55;8.90;;;4.80;;
84172;SDS011;74302;40.122;18.310;2024-01-27T09:14:24;6.72;;;3.10;;
84172;SDS011;74302;40.122;18.310;2024-01-27T09:16:08;8.18;;;4.03;;
84172;SDS011;74302;40.122;18.310;2024-01-27T09:17:54;8.98;;;3.80;;
84172;SDS011;74302;40.122;18.310;2024-01-27T09:19:39;7.82;;;3.58;;
84172;SDS011;74302;40.122;18.310;2024-01-27T09:21:22;6.00;;;3.50;;
84172;SDS011;74302;40.122;18.310;2024-01-27T09:23:11;6.28;;;3.53;;
84172;SDS011;74302;40.122;18.310;2024-01-27T09:24:54;7.75;;;5.15;;
84172;SDS011;74302;40.122;18.310;2024-01-27T09:26:39;7.75;;;4.45;;
84172;SDS011;74302;40.122;18.310;2024-01-27T09:30:08;7.10;;;3.53;;
84172;SDS011;74302;40.122;18.310;2024-01-27T09:31:53;9.80;;;3.33;;
84172;SDS011;74302;40.122;18.310;2024-01-27T09:35:20;9.65;;;4.88;;
84172;SDS011;74302;40.122;18.310;2024-01-27T09:37:04;6.68;;;3.53;;
84172;SDS011;74302;40.122;18.310;2024-01-27T09:38:48;6.22;;;3.58;;
84172;SDS011;74302;40.122;18.310;2024-01-27T09:40:32;7.32;;;3.90;;
84172;SDS011;74302;40.122;18.310;2024-01-27T09:42:15;8.57;;;4.77;;
84172;SDS011;74302;40.122;18.310;2024-01-27T09:44:05;9.38;;;4.75;;
84172;SDS011;74302;40.122;18.310;2024-01-27T09:45:50;7.53;;;4.45;;
84172;SDS011;74302;40.122;18.310;2024-01-27T09:47:34;5.57;;;2.83;;
84172;SDS011;74302;40.122;18.310;2024-01-27T09:49:19;16.35;;;3.22;;
84172;SDS011;74302;40.122;18.310;2024-01-27T09:51:03;4.40;;;2.53;;
84172;SDS011;74302;40.122;18.310;2024-01-27T09:52:48;7.63;;;4.40;;
84172;SDS011;74302;40.122;18.310;2024-01-27T09:54:31;6.17;;;3.67;;
84172;SDS011;74302;40.122;18.310;2024-01-27T09:56:15;7.53;;;3.92;;
84172;SDS011;74302;40.122;18.310;2024-01-27T09:58:01;7.53;;;4.53;;
84172;SDS011;74302;40.122;18.310;2024-01-27T09:59:45;7.78;;;4.22;;
84172;SDS011;74302;40.122;18.310;2024-01-27T10:01:33;6.88;;;3.22;;
84172;SDS011;74302;40.122;18.310;2024-01-27T10:03:19;6.15;;;2.85;;
84172;SDS011;74302;40.122;18.310;2024-01-27T10:05:04;5.75;;;3.53;;
84172;SDS011;74302;40.122;18.310;2024-01-27T10:06:51;7.53;;;2.85;;
84172;SDS011;74302;40.122;18.310;2024-01-27T10:08:35;10.82;;;3.13;;
84172;SDS011;74302;40.122;18.310;2024-01-27T10:10:20;5.43;;;2.75;;
84172;SDS011;74302;40.122;18.310;2024-01-27T10:12:04;3.55;;;2.47;;
84172;SDS011;74302;40.122;18.310;2024-01-27T10:13:58;8.75;;;3.05;;
84172;SDS011;74302;40.122;18.310;2024-01-27T10:15:43;6.05;;;1.85;;
84172;SDS011;74302;40.122;18.310;2024-01-27T10:17:28;5.07;;;2.47;;
84172;SDS011;74302;40.122;18.310;2024-01-27T10:19:18;2.10;;;1.73;;
84172;SDS011;74302;40.122;18.310;2024-01-27T10:21:12;4.50;;;2.30;;
84172;SDS011;74302;40.122;18.310;2024-01-27T10:22:57;6.43;;;3.85;;
84172;SDS011;74302;40.122;18.310;2024-01-27T10:24:40;3.97;;;2.60;;
84172;SDS011;74302;40.122;18.310;2024-01-27T10:26:24;5.15;;;2.85;;
84172;SDS011;74302;40.122;18.310;2024-01-27T10:29:52;5.25;;;2.78;;
84172;SDS011;74302;40.122;18.310;2024-01-27T10:31:37;5.35;;;3.58;;
84172;SDS011;74302;40.122;18.310;2024-01-27T10:33:23;6.00;;;3.05;;
84172;SDS011;74302;40.122;18.310;2024-01-27T10:35:07;5.82;;;2.75;;
84172;SDS011;74302;40.122;18.310;2024-01-27T10:36:51;5.00;;;1.38;;
84172;SDS011;74302;40.122;18.310;2024-01-27T10:40:19;5.57;;;2.63;;
84172;SDS011;74302;40.122;18.310;2024-01-27T10:42:06;15.43;;;3.58;;
84172;SDS011;74302;40.122;18.310;2024-01-27T10:43:53;4.68;;;2.70;;
84172;SDS011;74302;40.122;18.310;2024-01-27T10:45:40;7.65;;;3.30;;
84172;SDS011;74302;40.122;18.310;2024-01-27T10:47:25;7.25;;;3.47;;
84172;SDS011;74302;40.122;18.310;2024-01-27T10:49:13;5.20;;;3.50;;
84172;SDS011;74302;40.122;18.310;2024-01-27T10:50:58;3.67;;;2.45;;
84172;SDS011;74302;40.122;18.310;2024-01-27T10:52:46;4.63;;;1.83;;
84172;SDS011;74302;40.122;18.310;2024-01-27T10:54:31;7.78;;;2.97;;
84172;SDS011;74302;40.122;18.310;2024-01-27T10:56:18;6.72;;;2.25;;
84172;SDS011;74302;40.122;18.310;2024-01-27T10:58:02;10.30;;;3.85;;
84172;SDS011;74302;40.122;18.310;2024-01-27T10:59:47;5.40;;;2.65;;
84172;SDS011;74302;40.122;18.310;2024-01-27T11:01:31;2.92;;;2.20;;
84172;SDS011;74302;40.122;18.310;2024-01-27T11:03:17;2.58;;;2.00;;
84172;SDS011;74302;40.122;18.310;2024-01-27T11:05:03;5.00;;;2.28;;
84172;SDS011;74302;40.122;18.310;2024-01-27T11:06:49;10.98;;;2.72;;
84172;SDS011;74302;40.122;18.310;2024-01-27T11:08:34;11.63;;;3.30;;
84172;SDS011;74302;40.122;18.310;2024-01-27T11:10:22;8.93;;;2.85;;
84172;SDS011;74302;40.122;18.310;2024-01-27T11:12:07;3.40;;;1.67;;
84172;SDS011;74302;40.122;18.310;2024-01-27T11:13:52;12.48;;;1.92;;
84172;SDS011;74302;40.122;18.310;2024-01-27T11:15:36;4.05;;;2.30;;
84172;SDS011;74302;40.122;18.310;2024-01-27T11:17:20;9.52;;;2.58;;
84172;SDS011;74302;40.122;18.310;2024-01-27T11:20:49;3.45;;;1.83;;
84172;SDS011;74302;40.122;18.310;2024-01-27T11:22:37;7.28;;;3.08;;
84172;SDS011;74302;40.122;18.310;2024-01-27T11:24:23;3.75;;;2.20;;
84172;SDS011;74302;40.122;18.310;2024-01-27T11:26:08;5.47;;;2.15;;
84172;SDS011;74302;40.122;18.310;2024-01-27T11:29:46;2.10;;;1.58;;
84172;SDS011;74302;40.122;18.310;2024-01-27T11:31:30;6.80;;;3.33;;
84172;SDS011;74302;40.122;18.310;2024-01-27T11:33:15;4.93;;;3.25;;
84172;SDS011;74302;40.122;18.310;2024-01-27T11:35:00;7.95;;;3.25;;
84172;SDS011;74302;40.122;18.310;2024-01-27T11:36:48;4.93;;;2.42;;
84172;SDS011;74302;40.122;18.310;2024-01-27T11:38:32;7.88;;;3.05;;
84172;SDS011;74302;40.122;18.310;2024-01-27T11:40:16;12.63;;;4.13;;